Time;durP1;ratioP1;P1;durP2;ratioP2;P2;SDS_P1;SDS_P2;PMS_P1;PMS_P2;Temp;Humidity;BMP_temperature;BMP_pressure;BME280_temperature;BME280_humidity;BME280_pressure;Samples;Min_cycle;Max_cycle;Signal;HPM_P1;HPM_P2
2022/01/31 00:00:49;;;;;;;27.92;3.40;;;;;;;;;;6246187;22;20327;-85
2022/01/31 00:03:15;;;;;;;26.13;3.65;;;;;;;;;;6222058;22;20396;-85
2022/01/31 00:05:41;;;;;;;21.98;4.03;;;;;;;;;;6223023;22;20089;-85
2022/01/31 00:08:06;;;;;;;19.85;3.85;;;;;;;;;;6221896;22;20069;-86
2022/01/31 00:10:32;;;;;;;16.05;3.58;;;;;;;;;;6221646;22;20020;-86
2022/01/31 00:13:04;;;;;;;21.55;5.55;;;;;;;;;;6220229;22;20381;-86
2022/01/31 00:15:31;;;;;;;25.13;3.85;;;;;;;;;;6222416;22;20037;-86
2022/01/31 00:17:57;;;;;;;17.83;3.60;;;;;;;;;;6246083;22;20079;-86
2022/01/31 00:20:22;;;;;;;20.00;3.40;;;;;;;;;;6221764;22;20080;-86
2022/01/31 00:22:48;;;;;;;18.35;3.65;;;;;;;;;;6221000;22;20030;-86
2022/01/31 00:25:14;;;;;;;21.48;4.30;;;;;;;;;;6218593;22;20312;-86
2022/01/31 00:27:40;;;;;;;19.65;4.13;;;;;;;;;;6219540;22;20485;-86
2022/01/31 00:30:06;;;;;;;17.10;3.47;;;;;;;;;;6219278;22;20022;-86
2022/01/31 00:32:32;;;;;;;21.02;3.60;;;;;;;;;;6220991;22;20087;-86
2022/01/31 00:34:59;;;;;;;21.65;3.78;;;;;;;;;;6221269;22;20016;-85
2022/01/31 00:37:25;;;;;;;25.88;4.03;;;;;;;;;;6220424;22;20026;-85
2022/01/31 00:39:51;;;;;;;13.43;3.13;;;;;;;;;;6219796;22;20046;-86
2022/01/31 00:42:19;;;;;;;23.40;4.25;;;;;;;;;;6220942;22;20208;-86
2022/01/31 00:44:53;;;;;;;24.48;3.58;;;;;;;;;;6219485;22;20049;-85
2022/01/31 00:47:24;;;;;;;25.23;3.92;;;;;;;;;;6222079;22;20070;-86
2022/01/31 00:50:05;;;;;;;18.80;3.60;;;;;;;;;;6246736;22;20098;-86
2022/01/31 00:52:31;;;;;;;15.98;3.97;;;;;;;;;;6223183;22;20020;-85
2022/01/31 00:54:57;;;;;;;21.00;3.75;;;;;;;;;;6219187;22;20012;-86
2022/01/31 00:57:23;;;;;;;21.88;4.05;;;;;;;;;;6244899;22;20027;-86
2022/01/31 00:59:51;;;;;;;23.48;4.55;;;;;;;;;;6243725;22;20042;-86
2022/01/31 01:02:20;;;;;;;17.40;3.67;;;;;;;;;;6246190;22;20054;-86
2022/01/31 01:04:46;;;;;;;24.95;4.55;;;;;;;;;;6219534;22;20043;-86
2022/01/31 01:07:12;;;;;;;28.77;4.45;;;;;;;;;;6244881;22;20361;-86
2022/01/31 01:09:38;;;;;;;29.58;4.97;;;;;;;;;;6244663;22;20034;-86
2022/01/31 01:12:05;;;;;;;20.65;4.30;;;;;;;;;;6220006;22;20034;-85
2022/01/31 01:14:30;;;;;;;19.63;3.70;;;;;;;;;;6219823;22;20052;-86
2022/01/31 01:16:56;;;;;;;27.25;4.28;;;;;;;;;;6220286;22;20514;-86
2022/01/31 01:19:23;;;;;;;20.40;3.88;;;;;;;;;;6219888;22;20023;-85
2022/01/31 01:21:48;;;;;;;24.48;4.10;;;;;;;;;;6243851;22;20012;-86
2022/01/31 01:24:15;;;;;;;29.80;5.68;;;;;;;;;;6243925;22;20081;-86
2022/01/31 01:26:41;;;;;;;27.88;4.40;;;;;;;;;;6219033;22;20067;-85
2022/01/31 01:29:07;;;;;;;22.60;4.13;;;;;;;;;;6218492;22;20019;-85
2022/01/31 01:31:33;;;;;;;25.88;4.03;;;;;;;;;;6219794;22;20498;-85
2022/01/31 01:33:58;;;;;;;17.33;4.75;;;;;;;;;;6218922;22;20086;-86
2022/01/31 01:36:24;;;;;;;22.92;4.45;;;;;;;;;;6218334;22;20027;-86
2022/01/31 01:38:50;;;;;;;19.10;4.28;;;;;;;;;;6220095;22;20550;-85
2022/01/31 01:41:16;;;;;;;17.83;4.07;;;;;;;;;;6221180;22;20031;-85
2022/01/31 01:43:41;;;;;;;21.42;4.53;;;;;;;;;;6247280;22;20069;-85
2022/01/31 01:46:07;;;;;;;20.98;3.95;;;;;;;;;;6220370;22;20453;-86
2022/01/31 01:48:33;;;;;;;30.15;5.53;;;;;;;;;;6219286;22;20469;-86
2022/01/31 01:50:59;;;;;;;26.77;5.60;;;;;;;;;;6219992;22;20023;-86
2022/01/31 01:53:25;;;;;;;29.75;4.90;;;;;;;;;;6244436;22;20487;-86
2022/01/31 01:55:53;;;;;;;24.27;3.88;;;;;;;;;;6218285;22;20016;-86
2022/01/31 01:58:20;;;;;;;27.13;4.40;;;;;;;;;;6220659;22;20016;-85
2022/01/31 02:01:06;;;;;;;27.67;4.97;;;;;;;;;;6219974;22;20026;-86
2022/01/31 02:03:32;;;;;;;19.80;4.30;;;;;;;;;;6248586;22;20043;-85
2022/01/31 02:05:59;;;;;;;26.38;5.20;;;;;;;;;;6244937;22;20069;-86
2022/01/31 02:08:27;;;;;;;21.42;4.80;;;;;;;;;;6245203;22;20022;-85
2022/01/31 02:10:53;;;;;;;25.55;3.88;;;;;;;;;;6245266;22;20475;-86
2022/01/31 02:13:19;;;;;;;26.73;4.32;;;;;;;;;;6244722;22;20071;-86
2022/01/31 02:15:46;;;;;;;21.77;4.70;;;;;;;;;;6243965;22;20016;-86
2022/01/31 02:18:14;;;;;;;19.63;4.47;;;;;;;;;;6219920;22;20534;-86
2022/01/31 02:20:41;;;;;;;23.15;3.63;;;;;;;;;;6220569;22;20499;-86
2022/01/31 02:23:08;;;;;;;22.25;3.58;;;;;;;;;;6218997;22;20027;-86
2022/01/31 02:25:52;;;;;;;25.38;4.35;;;;;;;;;;6219061;22;20318;-86
2022/01/31 02:28:18;;;;;;;21.48;3.90;;;;;;;;;;6244653;22;20016;-86
2022/01/31 02:30:43;;;;;;;25.90;4.57;;;;;;;;;;6245131;22;20024;-86
2022/01/31 02:33:09;;;;;;;24.60;4.32;;;;;;;;;;6219302;22;20027;-86
2022/01/31 02:35:35;;;;;;;25.52;4.35;;;;;;;;;;6219015;22;20050;-86
2022/01/31 02:38:01;;;;;;;22.27;4.43;;;;;;;;;;6219046;22;20043;-86
2022/01/31 02:40:28;;;;;;;19.75;4.38;;;;;;;;;;6218859;22;20090;-86
2022/01/31 02:42:53;;;;;;;28.58;4.60;;;;;;;;;;6244067;22;20088;-86
2022/01/31 02:45:19;;;;;;;27.27;4.30;;;;;;;;;;6219181;22;20449;-86
2022/01/31 02:47:52;;;;;;;21.85;4.05;;;;;;;;;;6218339;22;20453;-86
2022/01/31 02:50:18;;;;;;;28.30;4.18;;;;;;;;;;6246785;22;20353;-86
2022/01/31 02:52:56;;;;;;;21.25;3.70;;;;;;;;;;6218979;22;20461;-85
2022/01/31 02:55:22;;;;;;;25.02;4.38;;;;;;;;;;6220881;22;20034;-85
2022/01/31 02:57:47;;;;;;;25.15;4.32;;;;;;;;;;6219237;22;20016;-85
2022/01/31 03:00:13;;;;;;;26.27;4.82;;;;;;;;;;6218944;22;20097;-85
2022/01/31 03:02:39;;;;;;;17.38;3.75;;;;;;;;;;6219652;22;20105;-86
2022/01/31 03:05:05;;;;;;;22.73;4.30;;;;;;;;;;6218222;22;20023;-86
2022/01/31 03:07:31;;;;;;;27.30;4.88;;;;;;;;;;6217022;22;20381;-86
2022/01/31 03:09:57;;;;;;;20.17;4.95;;;;;;;;;;6219131;22;20096;-85
2022/01/31 03:12:22;;;;;;;24.75;4.15;;;;;;;;;;6244443;22;20024;-85
2022/01/31 03:14:49;;;;;;;24.38;4.28;;;;;;;;;;6219992;22;20027;-85
2022/01/31 03:17:15;;;;;;;23.67;3.88;;;;;;;;;;6242980;22;20015;-86
2022/01/31 03:19:42;;;;;;;23.08;4.15;;;;;;;;;;6220614;22;20115;-85
2022/01/31 03:22:08;;;;;;;26.45;4.55;;;;;;;;;;6244499;22;20012;-85
2022/01/31 03:24:35;;;;;;;29.60;4.20;;;;;;;;;;6219776;22;20024;-86
2022/01/31 03:27:01;;;;;;;28.27;4.28;;;;;;;;;;6221132;22;20413;-85
2022/01/31 03:29:27;;;;;;;21.17;3.53;;;;;;;;;;6220722;22;20024;-86
2022/01/31 03:31:52;;;;;;;28.77;4.32;;;;;;;;;;6245131;22;20007;-86
2022/01/31 03:34:18;;;;;;;21.63;4.00;;;;;;;;;;6221366;22;20054;-86
2022/01/31 03:36:44;;;;;;;18.95;4.63;;;;;;;;;;6220919;22;20020;-86
2022/01/31 03:39:10;;;;;;;22.10;4.55;;;;;;;;;;6219926;22;20348;-85
2022/01/31 03:41:35;;;;;;;20.23;4.60;;;;;;;;;;6219181;22;20019;-84
2022/01/31 03:44:02;;;;;;;22.52;4.40;;;;;;;;;;6219334;22;20028;-84
2022/01/31 03:46:30;;;;;;;22.23;3.92;;;;;;;;;;6219385;22;20095;-84
2022/01/31 03:48:56;;;;;;;21.00;3.80;;;;;;;;;;6219650;22;20015;-85
2022/01/31 03:51:21;;;;;;;21.17;4.32;;;;;;;;;;6219765;22;20081;-85
2022/01/31 03:53:47;;;;;;;31.63;5.32;;;;;;;;;;6219536;22;20384;-85
2022/01/31 03:56:13;;;;;;;22.92;4.80;;;;;;;;;;6220058;22;20082;-84
2022/01/31 03:58:38;;;;;;;23.80;4.53;;;;;;;;;;6245532;22;20062;-85
2022/01/31 04:01:04;;;;;;;27.60;4.57;;;;;;;;;;6220215;22;20019;-85
2022/01/31 04:03:30;;;;;;;24.55;4.65;;;;;;;;;;6220102;22;20047;-84
2022/01/31 04:05:56;;;;;;;25.45;5.47;;;;;;;;;;6218880;22;20562;-85
2022/01/31 04:08:21;;;;;;;24.20;5.90;;;;;;;;;;6244237;22;20342;-85
2022/01/31 04:10:47;;;;;;;23.58;4.70;;;;;;;;;;6219263;22;20349;-84
2022/01/31 04:13:16;;;;;;;24.00;5.63;;;;;;;;;;6219952;22;20047;-85
2022/01/31 04:15:42;;;;;;;24.10;5.30;;;;;;;;;;6220295;22;20012;-84
2022/01/31 04:18:07;;;;;;;17.90;3.95;;;;;;;;;;6220056;22;20042;-85
2022/01/31 04:20:33;;;;;;;22.70;5.18;;;;;;;;;;6219336;22;20031;-85
2022/01/31 04:23:05;;;;;;;21.08;4.75;;;;;;;;;;6217829;22;20412;-84
2022/01/31 04:25:53;;;;;;;26.45;6.28;;;;;;;;;;6244933;22;20044;-84
2022/01/31 04:28:23;;;;;;;29.50;4.88;;;;;;;;;;6249222;22;20312;-84
2022/01/31 04:30:55;;;;;;;27.10;6.88;;;;;;;;;;6220988;22;20037;-84
2022/01/31 04:33:21;;;;;;;25.42;5.53;;;;;;;;;;6220600;22;20115;-85
2022/01/31 04:35:47;;;;;;;27.27;4.93;;;;;;;;;;6245026;22;20046;-84
2022/01/31 04:38:13;;;;;;;22.63;5.53;;;;;;;;;;6244637;22;20026;-84
2022/01/31 04:40:39;;;;;;;23.42;4.65;;;;;;;;;;6219817;22;20073;-84
2022/01/31 04:43:05;;;;;;;22.90;4.18;;;;;;;;;;6218599;22;20139;-85
2022/01/31 04:45:30;;;;;;;21.92;5.90;;;;;;;;;;6218135;22;20024;-84
2022/01/31 04:47:56;;;;;;;28.27;5.20;;;;;;;;;;6244074;22;20020;-84
2022/01/31 04:50:22;;;;;;;19.83;4.25;;;;;;;;;;6218736;22;20357;-84
2022/01/31 04:52:47;;;;;;;27.30;5.38;;;;;;;;;;6243895;22;20019;-84
2022/01/31 04:55:13;;;;;;;32.28;5.13;;;;;;;;;;6218976;22;20094;-84
2022/01/31 04:57:39;;;;;;;26.27;5.05;;;;;;;;;;6244534;22;20016;-85
2022/01/31 05:00:07;;;;;;;28.05;4.55;;;;;;;;;;6244084;22;20024;-85
2022/01/31 05:02:33;;;;;;;21.25;4.90;;;;;;;;;;6215314;22;20270;-84
2022/01/31 05:04:59;;;;;;;21.83;4.65;;;;;;;;;;6240683;22;20015;-82
2022/01/31 05:07:24;;;;;;;30.30;4.63;;;;;;;;;;6240900;22;20095;-82
2022/01/31 05:09:50;;;;;;;25.63;4.45;;;;;;;;;;6241192;22;20019;-82
2022/01/31 05:12:16;;;;;;;26.50;5.25;;;;;;;;;;6218657;22;20044;-82
2022/01/31 05:14:42;;;;;;;22.95;3.92;;;;;;;;;;6243874;22;20570;-82
2022/01/31 05:17:07;;;;;;;26.60;5.10;;;;;;;;;;6218348;22;20095;-82
2022/01/31 05:19:33;;;;;;;28.35;5.45;;;;;;;;;;6219045;22;20090;-82
2022/01/31 05:22:00;;;;;;;25.13;4.18;;;;;;;;;;6216700;22;20383;-82
2022/01/31 05:24:26;;;;;;;18.73;3.72;;;;;;;;;;6242979;22;20015;-82
2022/01/31 05:26:53;;;;;;;23.30;5.20;;;;;;;;;;6217940;22;20043;-82
2022/01/31 05:29:19;;;;;;;24.92;4.35;;;;;;;;;;6268198;22;20024;-82
2022/01/31 05:31:44;;;;;;;29.88;5.30;;;;;;;;;;6218194;22;20039;-82
2022/01/31 05:34:12;;;;;;;23.92;4.55;;;;;;;;;;6269538;22;20066;-82
2022/01/31 05:36:38;;;;;;;23.85;5.07;;;;;;;;;;6217352;22;20019;-83
2022/01/31 05:39:03;;;;;;;22.67;4.40;;;;;;;;;;6218435;22;20041;-83
2022/01/31 05:41:29;;;;;;;22.67;4.57;;;;;;;;;;6216938;22;20050;-84
2022/01/31 05:43:55;;;;;;;22.83;4.20;;;;;;;;;;6216195;22;20020;-83
2022/01/31 05:46:22;;;;;;;34.88;5.93;;;;;;;;;;6241706;22;20050;-84
2022/01/31 05:48:47;;;;;;;36.72;5.72;;;;;;;;;;6218633;22;20485;-84
2022/01/31 05:51:18;;;;;;;27.23;5.03;;;;;;;;;;6241832;22;20046;-83
2022/01/31 05:53:45;;;;;;;24.45;4.45;;;;;;;;;;6241513;22;20012;-83
2022/01/31 05:56:12;;;;;;;27.17;4.60;;;;;;;;;;6243641;22;20023;-84
2022/01/31 05:58:38;;;;;;;21.83;3.63;;;;;;;;;;6215293;22;20039;-83
2022/01/31 06:01:04;;;;;;;27.73;5.55;;;;;;;;;;6217568;22;20105;-83
2022/01/31 06:03:30;;;;;;;25.15;4.65;;;;;;;;;;6216063;22;20521;-85
2022/01/31 06:05:55;;;;;;;30.00;5.50;;;;;;;;;;6218432;22;20019;-84
2022/01/31 06:08:21;;;;;;;28.40;5.35;;;;;;;;;;6217176;22;20049;-83
2022/01/31 06:10:48;;;;;;;32.67;4.85;;;;;;;;;;6217429;22;20299;-83
2022/01/31 06:13:25;;;;;;;21.00;4.93;;;;;;;;;;6218855;22;20031;-83
2022/01/31 06:15:51;;;;;;;28.27;4.65;;;;;;;;;;6221028;22;20521;-83
2022/01/31 06:18:18;;;;;;;25.42;5.00;;;;;;;;;;6243862;22;20112;-83
2022/01/31 06:20:44;;;;;;;22.63;5.20;;;;;;;;;;6218259;22;20083;-83
2022/01/31 06:23:10;;;;;;;25.42;3.75;;;;;;;;;;6243006;22;20027;-83
2022/01/31 06:25:36;;;;;;;27.13;4.75;;;;;;;;;;6243452;22;20020;-84
2022/01/31 06:28:04;;;;;;;24.30;5.05;;;;;;;;;;6218497;22;20118;-84
2022/01/31 06:30:30;;;;;;;17.75;4.07;;;;;;;;;;6218097;22;20342;-84
2022/01/31 06:32:57;;;;;;;30.70;4.30;;;;;;;;;;6216772;22;20034;-83
2022/01/31 06:35:23;;;;;;;33.15;5.38;;;;;;;;;;6242865;22;20428;-84
2022/01/31 06:37:48;;;;;;;30.75;4.53;;;;;;;;;;6217469;22;20016;-83
2022/01/31 06:40:14;;;;;;;25.25;5.55;;;;;;;;;;6219864;22;20544;-85
2022/01/31 06:42:40;;;;;;;25.30;5.13;;;;;;;;;;6218609;22;20461;-84
2022/01/31 06:45:06;;;;;;;25.98;5.10;;;;;;;;;;6221830;22;20100;-82
2022/01/31 06:47:32;;;;;;;30.58;4.97;;;;;;;;;;6243267;22;20536;-83
2022/01/31 06:49:59;;;;;;;19.73;4.22;;;;;;;;;;6218287;22;20019;-83
2022/01/31 06:52:26;;;;;;;26.95;5.22;;;;;;;;;;6217896;22;20015;-83
2022/01/31 06:54:54;;;;;;;19.42;4.22;;;;;;;;;;6217842;22;20066;-83
2022/01/31 06:57:22;;;;;;;27.95;5.47;;;;;;;;;;6218514;22;20055;-84
2022/01/31 06:59:48;;;;;;;27.80;5.65;;;;;;;;;;6245909;22;20243;-84
2022/01/31 07:02:14;;;;;;;24.65;5.07;;;;;;;;;;6245860;22;20024;-84
2022/01/31 07:04:40;;;;;;;30.23;6.70;;;;;;;;;;6221912;22;20011;-84
2022/01/31 07:07:05;;;;;;;26.08;5.10;;;;;;;;;;6219813;22;20063;-83
2022/01/31 07:09:33;;;;;;;34.30;6.07;;;;;;;;;;6220646;22;20261;-83
2022/01/31 07:12:00;;;;;;;29.45;4.88;;;;;;;;;;6219476;22;20030;-83
2022/01/31 07:14:30;;;;;;;27.70;5.88;;;;;;;;;;6220208;22;20027;-83
2022/01/31 07:16:57;;;;;;;25.02;5.38;;;;;;;;;;6246253;22;20416;-83
2022/01/31 07:19:26;;;;;;;30.10;6.13;;;;;;;;;;6218759;22;20103;-84
2022/01/31 07:21:52;;;;;;;23.58;5.10;;;;;;;;;;6245007;22;20090;-83
2022/01/31 07:26:45;;;;;;;23.27;4.82;;;;;;;;;;6246501;22;20020;-83
2022/01/31 07:29:11;;;;;;;25.80;5.45;;;;;;;;;;6230585;22;20026;-83
2022/01/31 07:31:38;;;;;;;29.88;5.43;;;;;;;;;;6217871;22;20024;-83
2022/01/31 07:34:04;;;;;;;22.67;4.85;;;;;;;;;;6221045;22;20016;-83
2022/01/31 07:36:29;;;;;;;23.02;4.50;;;;;;;;;;6219880;22;20349;-83
2022/01/31 07:38:55;;;;;;;27.00;4.70;;;;;;;;;;6219272;22;20023;-83
2022/01/31 07:41:21;;;;;;;25.27;4.95;;;;;;;;;;6244367;22;20090;-83
2022/01/31 07:43:47;;;;;;;23.25;3.95;;;;;;;;;;6219361;22;20709;-85
2022/01/31 07:46:14;;;;;;;28.88;4.25;;;;;;;;;;6222611;22;20404;-84
2022/01/31 07:48:40;;;;;;;27.38;4.85;;;;;;;;;;6219966;22;20063;-84
2022/01/31 07:51:06;;;;;;;26.42;4.97;;;;;;;;;;6219423;22;20518;-83
2022/01/31 07:53:32;;;;;;;25.52;5.80;;;;;;;;;;6220679;22;20362;-83
2022/01/31 07:56:00;;;;;;;25.52;5.20;;;;;;;;;;6218869;22;20096;-83
2022/01/31 07:58:26;;;;;;;26.90;5.10;;;;;;;;;;6245476;22;20024;-83
2022/01/31 08:00:52;;;;;;;31.08;5.95;;;;;;;;;;6219920;22;20024;-84
2022/01/31 08:03:17;;;;;;;23.55;4.97;;;;;;;;;;6221281;22;20028;-83
2022/01/31 08:05:44;;;;;;;26.70;5.38;;;;;;;;;;6247104;22;20042;-84
2022/01/31 08:08:10;;;;;;;29.70;6.03;;;;;;;;;;6245254;22;20024;-83
2022/01/31 08:10:37;;;;;;;28.80;5.07;;;;;;;;;;6219263;22;20019;-82
2022/01/31 08:13:05;;;;;;;31.33;6.00;;;;;;;;;;6220598;22;20449;-84
2022/01/31 08:15:33;;;;;;;26.55;5.25;;;;;;;;;;6215300;22;20019;-83
2022/01/31 08:17:59;;;;;;;28.80;5.80;;;;;;;;;;6222997;22;20032;-83
2022/01/31 08:20:25;;;;;;;30.73;5.80;;;;;;;;;;6247855;22;20527;-82
2022/01/31 08:22:50;;;;;;;22.80;4.65;;;;;;;;;;6220897;22;20085;-83
2022/01/31 08:25:16;;;;;;;22.25;5.45;;;;;;;;;;6220825;22;20450;-83
2022/01/31 08:27:46;;;;;;;29.17;4.88;;;;;;;;;;6221155;22;20015;-83
2022/01/31 08:30:17;;;;;;;22.25;4.32;;;;;;;;;;6247186;22;20757;-83
2022/01/31 08:32:45;;;;;;;27.60;6.93;;;;;;;;;;6221601;22;20015;-83
2022/01/31 08:37:56;;;;;;;30.55;5.55;;;;;;;;;;6249943;22;20031;-83
2022/01/31 08:40:23;;;;;;;28.73;6.25;;;;;;;;;;6220989;22;20298;-83
2022/01/31 08:42:48;;;;;;;23.67;5.13;;;;;;;;;;6219588;22;20136;-82
2022/01/31 08:45:14;;;;;;;29.30;6.82;;;;;;;;;;6244334;22;20477;-84
2022/01/31 08:47:41;;;;;;;25.42;6.18;;;;;;;;;;6244844;22;20012;-83
2022/01/31 08:50:09;;;;;;;20.38;5.18;;;;;;;;;;6220175;22;20030;-83
2022/01/31 08:52:34;;;;;;;30.52;6.32;;;;;;;;;;6219450;22;20381;-83
2022/01/31 08:55:01;;;;;;;36.10;6.63;;;;;;;;;;6218778;22;20084;-83
2022/01/31 08:57:27;;;;;;;29.38;5.40;;;;;;;;;;6221209;22;20024;-84
2022/01/31 08:59:54;;;;;;;29.67;6.60;;;;;;;;;;6220082;22;20012;-82
2022/01/31 09:02:27;;;;;;;31.25;7.78;;;;;;;;;;6245459;22;20051;-83
2022/01/31 09:04:52;;;;;;;37.92;6.97;;;;;;;;;;6220669;22;20011;-83
2022/01/31 09:07:20;;;;;;;29.27;7.30;;;;;;;;;;6217497;22;20718;-83
2022/01/31 09:09:50;;;;;;;30.20;8.35;;;;;;;;;;6219879;22;20023;-83
2022/01/31 09:12:17;;;;;;;31.45;7.13;;;;;;;;;;6219949;22;20091;-83
2022/01/31 09:14:43;;;;;;;26.77;6.10;;;;;;;;;;6244918;22;20016;-82
2022/01/31 09:17:09;;;;;;;31.23;6.18;;;;;;;;;;6218896;22;20334;-82
2022/01/31 09:19:35;;;;;;;19.67;5.88;;;;;;;;;;6246326;22;20023;-83
2022/01/31 09:22:01;;;;;;;32.45;7.63;;;;;;;;;;6220736;22;20030;-82
2022/01/31 09:24:28;;;;;;;38.83;8.05;;;;;;;;;;6237874;22;20085;-81
2022/01/31 09:26:54;;;;;;;27.73;6.45;;;;;;;;;;6215178;22;20509;-83
2022/01/31 09:29:21;;;;;;;21.92;5.25;;;;;;;;;;6214710;22;20085;-82
2022/01/31 09:31:47;;;;;;;22.50;7.38;;;;;;;;;;6209536;22;20098;-82
2022/01/31 09:34:13;;;;;;;26.42;7.60;;;;;;;;;;6210108;22;20382;-82
2022/01/31 09:36:39;;;;;;;27.80;7.28;;;;;;;;;;6209467;22;20019;-82
2022/01/31 09:39:07;;;;;;;26.73;7.88;;;;;;;;;;6238289;22;20015;-82
2022/01/31 09:41:35;;;;;;;30.75;6.90;;;;;;;;;;6214501;22;20051;-83
2022/01/31 09:47:06;;;;;;;32.35;6.90;;;;;;;;;;6202529;22;20015;-83
2022/01/31 09:49:32;;;;;;;27.90;6.32;;;;;;;;;;6215075;22;20027;-83
2022/01/31 09:51:58;;;;;;;27.15;6.40;;;;;;;;;;6210950;22;20022;-83
2022/01/31 09:54:25;;;;;;;29.80;6.50;;;;;;;;;;6209017;22;20023;-83
2022/01/31 09:56:53;;;;;;;26.92;5.60;;;;;;;;;;6209239;22;20107;-83
2022/01/31 09:59:19;;;;;;;22.15;5.55;;;;;;;;;;6211861;22;20031;-83
2022/01/31 10:01:52;;;;;;;23.67;7.20;;;;;;;;;;6210112;22;20012;-82
2022/01/31 10:04:23;;;;;;;22.67;6.32;;;;;;;;;;6214467;22;20301;-83
2022/01/31 10:06:54;;;;;;;27.05;5.65;;;;;;;;;;6236730;22;20126;-83
2022/01/31 10:09:22;;;;;;;28.48;6.22;;;;;;;;;;6212605;22;20461;-83
2022/01/31 10:11:51;;;;;;;32.28;6.40;;;;;;;;;;6239607;22;20397;-83
2022/01/31 10:17:25;;;;;;;26.35;6.07;;;;;;;;;;6263701;22;20034;-83
2022/01/31 10:19:53;;;;;;;22.92;6.32;;;;;;;;;;6208515;22;20078;-84
2022/01/31 10:22:20;;;;;;;30.50;7.22;;;;;;;;;;6212063;22;20365;-83
2022/01/31 10:24:49;;;;;;;27.92;6.35;;;;;;;;;;6215812;22;20073;-83
2022/01/31 10:27:17;;;;;;;23.55;6.88;;;;;;;;;;6214406;22;20177;-84
2022/01/31 10:29:45;;;;;;;29.70;6.82;;;;;;;;;;6214924;22;20098;-83
2022/01/31 10:32:25;;;;;;;33.20;6.60;;;;;;;;;;6216006;22;20077;-84
2022/01/31 10:34:55;;;;;;;27.08;6.32;;;;;;;;;;6214751;22;20020;-83
2022/01/31 10:37:22;;;;;;;33.60;7.28;;;;;;;;;;6211763;22;20503;-83
2022/01/31 10:45:56;;;;;;;24.08;5.63;;;;;;;;;;6241049;22;20403;-85
2022/01/31 10:53:46;;;;;;;27.83;6.57;;;;;;;;;;6239196;22;20187;-82
2022/01/31 10:56:12;;;;;;;34.10;6.40;;;;;;;;;;6212677;22;20082;-82
2022/01/31 10:58:55;;;;;;;25.08;6.35;;;;;;;;;;6210893;22;20031;-83
2022/01/31 11:01:21;;;;;;;34.88;7.22;;;;;;;;;;6234027;22;20087;-82
2022/01/31 11:03:47;;;;;;;30.33;6.40;;;;;;;;;;6236457;22;20054;-83
2022/01/31 11:06:13;;;;;;;28.13;6.65;;;;;;;;;;6213209;22;20300;-84
2022/01/31 11:08:39;;;;;;;25.77;5.80;;;;;;;;;;6213607;22;20024;-83
2022/01/31 11:11:05;;;;;;;21.73;5.78;;;;;;;;;;6216990;22;20081;-84
2022/01/31 11:13:33;;;;;;;22.05;5.32;;;;;;;;;;6217139;22;20012;-83
2022/01/31 11:15:59;;;;;;;20.60;5.97;;;;;;;;;;6243457;22;20035;-82
2022/01/31 11:18:32;;;;;;;47.80;13.05;;;;;;;;;;6217397;22;20015;-83
2022/01/31 11:21:04;;;;;;;35.90;11.15;;;;;;;;;;6243614;22;20089;-82
2022/01/31 11:23:32;;;;;;;49.75;18.48;;;;;;;;;;6216998;22;20077;-82
2022/01/31 11:26:00;;;;;;;36.75;8.30;;;;;;;;;;6246481;22;20069;-82
2022/01/31 11:28:31;;;;;;;28.17;6.60;;;;;;;;;;6220104;22;20016;-84
2022/01/31 11:30:57;;;;;;;23.98;5.88;;;;;;;;;;6218112;22;20102;-82
2022/01/31 11:33:23;;;;;;;28.63;6.32;;;;;;;;;;6241793;22;20353;-83
2022/01/31 11:35:50;;;;;;;29.52;6.07;;;;;;;;;;6241818;22;20028;-82
2022/01/31 11:38:16;;;;;;;23.17;6.32;;;;;;;;;;6217089;22;20015;-83
2022/01/31 11:40:43;;;;;;;32.10;8.25;;;;;;;;;;6217348;22;20046;-82
2022/01/31 11:43:09;;;;;;;29.67;9.07;;;;;;;;;;6241437;22;20034;-82
2022/01/31 11:45:41;;;;;;;23.13;8.15;;;;;;;;;;6217205;22;20097;-82
2022/01/31 11:48:13;;;;;;;32.00;8.93;;;;;;;;;;6244746;22;20338;-82
2022/01/31 11:50:44;;;;;;;23.05;6.72;;;;;;;;;;6217656;22;20070;-82
2022/01/31 11:53:10;;;;;;;24.10;6.38;;;;;;;;;;6216949;22;20020;-83
2022/01/31 11:55:38;;;;;;;31.50;9.27;;;;;;;;;;6242879;22;20495;-82
2022/01/31 11:58:09;;;;;;;24.55;8.27;;;;;;;;;;6218105;22;20042;-83
2022/01/31 12:00:37;;;;;;;28.75;7.63;;;;;;;;;;6217770;22;20030;-83
2022/01/31 12:03:06;;;;;;;27.42;7.65;;;;;;;;;;6242548;22;20012;-82
2022/01/31 12:05:36;;;;;;;27.75;6.80;;;;;;;;;;6244548;22;20015;-84
2022/01/31 12:08:08;;;;;;;26.45;6.57;;;;;;;;;;6220915;22;20034;-83
2022/01/31 12:10:38;;;;;;;24.30;6.05;;;;;;;;;;6219561;22;20019;-83
2022/01/31 12:13:26;;;;;;;24.45;6.93;;;;;;;;;;6219880;22;20012;-83
2022/01/31 12:16:02;;;;;;;28.27;6.50;;;;;;;;;;6246090;22;20102;-83
2022/01/31 12:24:09;;;;;;;24.55;5.75;;;;;;;;;;6247911;22;20538;-83
2022/01/31 12:26:50;;;;;;;28.90;6.40;;;;;;;;;;6217330;22;20011;-83
2022/01/31 12:29:19;;;;;;;22.27;5.82;;;;;;;;;;6243791;22;20015;-83
2022/01/31 12:31:50;;;;;;;22.20;5.95;;;;;;;;;;6213489;22;20019;-83
2022/01/31 12:34:22;;;;;;;18.02;5.95;;;;;;;;;;6212889;22;20012;-83
2022/01/31 12:36:53;;;;;;;20.85;5.80;;;;;;;;;;6239753;22;20033;-83
2022/01/31 12:42:14;;;;;;;21.60;6.10;;;;;;;;;;6268585;22;20030;-84
2022/01/31 12:44:42;;;;;;;25.13;5.47;;;;;;;;;;6218886;22;20362;-84
2022/01/31 12:47:14;;;;;;;24.02;5.93;;;;;;;;;;6240613;22;20457;-84
2022/01/31 12:49:41;;;;;;;22.75;5.95;;;;;;;;;;6241758;22;20024;-84
2022/01/31 12:52:10;;;;;;;27.20;6.47;;;;;;;;;;6214738;22;20035;-84
2022/01/31 12:54:36;;;;;;;25.15;5.85;;;;;;;;;;6215224;22;20019;-84
2022/01/31 12:57:13;;;;;;;20.42;5.70;;;;;;;;;;6212186;22;20078;-83
2022/01/31 12:59:40;;;;;;;27.60;6.05;;;;;;;;;;6213799;22;20012;-84
2022/01/31 13:02:08;;;;;;;30.13;6.93;;;;;;;;;;6240024;22;20038;-84
2022/01/31 13:04:34;;;;;;;22.00;5.85;;;;;;;;;;6239681;22;20215;-83
2022/01/31 13:07:04;;;;;;;26.13;6.40;;;;;;;;;;6238894;22;20015;-84
2022/01/31 13:09:38;;;;;;;23.33;7.05;;;;;;;;;;6213571;22;20012;-84
2022/01/31 13:12:15;;;;;;;24.48;6.57;;;;;;;;;;6239261;22;20019;-84
2022/01/31 13:14:45;;;;;;;19.02;5.75;;;;;;;;;;6217331;22;20267;-83
2022/01/31 13:17:15;;;;;;;24.35;5.75;;;;;;;;;;6216847;22;20022;-83
2022/01/31 13:20:02;;;;;;;20.13;6.47;;;;;;;;;;6216692;22;20048;-82
2022/01/31 13:22:41;;;;;;;24.48;5.07;;;;;;;;;;6215431;22;20293;-83
2022/01/31 13:25:10;;;;;;;24.40;5.13;;;;;;;;;;6217169;22;20015;-83
2022/01/31 13:27:37;;;;;;;24.95;5.97;;;;;;;;;;6215030;22;20051;-82
2022/01/31 13:30:05;;;;;;;31.70;7.88;;;;;;;;;;6237328;22;20098;-83
2022/01/31 13:32:33;;;;;;;20.05;5.90;;;;;;;;;;6213712;22;20024;-83
2022/01/31 13:35:01;;;;;;;25.77;5.95;;;;;;;;;;6238150;22;20016;-84
2022/01/31 13:37:45;;;;;;;28.10;5.88;;;;;;;;;;6237489;22;20123;-83
2022/01/31 13:40:18;;;;;;;21.90;5.50;;;;;;;;;;6240084;22;20464;-83
2022/01/31 13:42:54;;;;;;;28.15;7.32;;;;;;;;;;6265382;22;20047;-83
2022/01/31 13:45:26;;;;;;;24.50;5.65;;;;;;;;;;6215907;22;20083;-83
2022/01/31 13:47:57;;;;;;;25.50;6.07;;;;;;;;;;6215468;22;20306;-83
2022/01/31 13:50:26;;;;;;;24.52;6.60;;;;;;;;;;6215349;22;20047;-84
2022/01/31 13:52:54;;;;;;;23.20;5.22;;;;;;;;;;6213162;22;20012;-83
2022/01/31 13:55:20;;;;;;;22.65;5.75;;;;;;;;;;6239413;22;20582;-83
2022/01/31 13:57:46;;;;;;;26.80;6.07;;;;;;;;;;6239604;22;20039;-83
2022/01/31 14:00:11;;;;;;;19.55;5.50;;;;;;;;;;6214276;22;20019;-83
2022/01/31 14:02:39;;;;;;;23.23;5.80;;;;;;;;;;6213044;22;20016;-84
2022/01/31 14:05:21;;;;;;;15.85;5.32;;;;;;;;;;6215123;22;20027;-84
2022/01/31 14:07:46;;;;;;;21.95;5.82;;;;;;;;;;6204322;22;20019;-83
2022/01/31 14:10:31;;;;;;;23.70;5.43;;;;;;;;;;6214514;22;20023;-84
2022/01/31 14:12:59;;;;;;;26.33;6.53;;;;;;;;;;6214557;22;20020;-84
2022/01/31 14:15:24;;;;;;;20.70;6.28;;;;;;;;;;6213534;22;20015;-84
2022/01/31 14:17:51;;;;;;;20.08;5.22;;;;;;;;;;6214818;22;20015;-83
2022/01/31 14:20:17;;;;;;;28.35;6.03;;;;;;;;;;6214122;22;20355;-85
2022/01/31 14:22:44;;;;;;;25.52;6.72;;;;;;;;;;6213502;22;20015;-84
2022/01/31 14:25:11;;;;;;;24.42;6.35;;;;;;;;;;6215015;22;20075;-84
2022/01/31 14:27:58;;;;;;;30.52;5.93;;;;;;;;;;6200408;22;20020;-84
2022/01/31 14:30:24;;;;;;;31.23;6.05;;;;;;;;;;6212907;22;20047;-84
2022/01/31 14:32:59;;;;;;;23.00;6.38;;;;;;;;;;6240196;22;20031;-84
2022/01/31 14:35:28;;;;;;;23.23;6.23;;;;;;;;;;6264737;22;20350;-85
2022/01/31 14:37:56;;;;;;;30.80;6.45;;;;;;;;;;6214612;22;20505;-84
2022/01/31 14:47:12;;;;;;;29.88;7.35;;;;;;;;;;6246119;22;20026;-85
2022/01/31 14:48:54;;;;;;;22.73;5.25;;;;;;;;;;6231848;22;20027;-85
2022/01/31 14:51:24;;;;;;;34.08;6.82;;;;;;;;;;6215851;22;20019;-84
2022/01/31 14:53:57;;;;;;;27.77;6.20;;;;;;;;;;6215113;22;20016;-85
2022/01/31 14:56:23;;;;;;;22.58;5.82;;;;;;;;;;6240236;22;20113;-84
2022/01/31 14:58:49;;;;;;;28.70;6.63;;;;;;;;;;6215364;22;20485;-85
2022/01/31 15:01:15;;;;;;;23.55;5.70;;;;;;;;;;6214380;22;20077;-84
2022/01/31 15:03:40;;;;;;;25.55;7.18;;;;;;;;;;6214687;22;20019;-83
2022/01/31 15:06:06;;;;;;;26.98;5.97;;;;;;;;;;6214953;22;20015;-84
2022/01/31 15:08:32;;;;;;;25.15;5.47;;;;;;;;;;6238652;22;20291;-84
2022/01/31 15:10:58;;;;;;;26.25;5.93;;;;;;;;;;6215140;22;20385;-85